Time;durP1;ratioP1;P1;durP2;ratioP2;P2;SDS_P1;SDS_P2;PMS_P1;PMS_P2;Temp;Humidity;BMP_temperature;BMP_pressure;BME280_temperature;BME280_humidity;BME280_pressure;Samples;Min_cycle;Max_cycle;Signal;HPM_P1;HPM_P2
2022/05/25 00:02:09;;;;;;;7.77;6.40;;;19.00;93.90;;;19.35;63.15;94796.59;5043748;28;20460;-57
2022/05/25 00:04:36;;;;;;;7.83;6.10;;;19.00;93.80;;;19.32;63.31;94802.31;5046293;28;20562;-55
2022/05/25 00:07:04;;;;;;;12.77;6.03;;;18.90;93.70;;;19.30;63.41;94788.34;5045341;28;20455;-54
2022/05/25 00:09:31;;;;;;;14.60;7.00;;;18.90;93.80;;;19.28;62.72;94805.56;5042576;28;20805;-56
2022/05/25 00:11:59;;;;;;;22.90;7.40;;;18.90;93.80;;;19.24;63.25;94805.13;5056659;28;20486;-56
2022/05/25 00:14:27;;;;;;;11.07;7.00;;;18.80;93.90;;;19.19;62.82;94801.41;5052575;28;20484;-58
2022/05/25 00:16:54;;;;;;;10.73;6.87;;;18.80;93.80;;;19.16;62.75;94813.25;5045398;28;20459;-56
2022/05/25 00:22:06;;;;;;;8.50;7.20;;;18.80;94.00;;;19.10;62.93;94809.56;5048416;28;20455;-56
2022/05/25 00:24:34;;;;;;;17.33;6.57;;;18.70;94.00;;;19.07;63.66;94806.44;5055266;28;20577;-55
2022/05/25 00:27:01;;;;;;;9.23;6.80;;;18.70;94.00;;;19.04;63.74;94805.00;5057221;28;21149;-55
2022/05/25 00:29:29;;;;;;;8.40;6.70;;;18.70;94.20;;;18.99;63.66;94797.56;5053287;28;20533;-55
2022/05/25 00:31:57;;;;;;;12.37;7.57;;;18.70;94.10;;;18.98;63.84;94797.78;5052516;28;20455;-54
2022/05/25 00:34:24;;;;;;;9.10;6.97;;;18.60;94.10;;;18.94;63.26;94796.50;5052077;28;20909;-57
2022/05/25 00:36:51;;;;;;;9.93;7.63;;;18.60;94.30;;;18.91;64.37;94804.88;5057227;28;20544;-57
2022/05/25 00:39:19;;;;;;;8.50;6.83;;;18.60;94.60;;;18.86;63.44;94801.97;5055660;28;20474;-54
2022/05/25 00:41:46;;;;;;;7.20;6.50;;;18.50;94.40;;;18.84;64.00;94803.97;5048410;28;20865;-54
2022/05/25 00:44:13;;;;;;;11.40;7.10;;;18.50;94.30;;;18.80;63.52;94808.84;5044059;28;20483;-56
2022/05/25 00:46:42;;;;;;;15.43;8.53;;;18.40;94.50;;;18.77;63.57;94810.06;5044768;28;21040;-57
2022/05/25 00:49:17;;;;;;;9.60;7.83;;;18.40;94.50;;;18.73;64.01;94813.31;5055403;28;21021;-56
2022/05/25 00:51:48;;;;;;;8.63;7.10;;;18.40;94.50;;;18.70;64.19;94806.53;5051057;28;20458;-55
2022/05/25 00:54:18;;;;;;;7.80;7.00;;;18.40;94.60;;;18.66;64.02;94810.59;5054244;28;20480;-58
2022/05/25 00:56:47;;;;;;;7.30;6.70;;;18.30;94.60;;;18.63;64.30;94800.31;5053989;28;20446;-56
2022/05/25 00:59:27;;;;;;;12.40;7.20;;;18.30;94.70;;;18.59;64.40;94807.88;5044028;28;20479;-54
2022/05/25 01:01:56;;;;;;;10.07;7.00;;;18.20;94.80;;;18.55;64.40;94806.59;5060897;28;20485;-56
2022/05/25 01:04:24;;;;;;;9.70;8.33;;;18.20;94.80;;;18.52;64.81;94806.16;5053830;28;20482;-55
2022/05/25 01:07:09;;;;;;;12.60;7.67;;;18.20;95.20;;;18.46;64.39;94810.41;5053001;28;20483;-54
2022/05/25 01:09:44;;;;;;;15.87;8.87;;;18.10;95.00;;;18.43;64.62;94813.44;5044640;28;20843;-55
2022/05/25 01:12:26;;;;;;;13.03;7.70;;;18.10;95.10;;;18.37;64.48;94816.88;5034436;28;20548;-57
2022/05/25 01:15:08;;;;;;;9.50;7.90;;;18.10;95.10;;;18.33;64.83;94816.44;5060697;28;20467;-58
2022/05/25 01:17:58;;;;;;;9.47;7.50;;;18.00;95.30;;;18.31;65.07;94826.44;5054634;28;20738;-56
2022/05/25 01:20:30;;;;;;;8.60;7.50;;;18.00;95.20;;;18.28;64.96;94830.31;5040665;28;20491;-57
2022/05/25 01:23:40;;;;;;;10.90;6.87;;;17.90;95.20;;;18.26;64.95;94827.00;5051471;28;20467;-58
2022/05/25 01:26:40;;;;;;;13.73;7.90;;;17.90;95.40;;;18.21;64.79;94821.41;5049272;28;20478;-58
2022/05/25 01:29:39;;;;;;;15.23;8.60;;;17.90;95.40;;;18.17;64.95;94828.16;5051943;28;20455;-54
2022/05/25 01:32:09;;;;;;;24.00;7.63;;;17.80;95.20;;;18.15;64.61;94830.16;5055674;28;20447;-56
2022/05/25 01:34:39;;;;;;;8.60;7.80;;;17.80;95.30;;;18.12;64.51;94827.88;5046612;28;20479;-56
2022/05/25 01:37:09;;;;;;;13.70;7.13;;;17.80;95.30;;;18.09;64.69;94830.91;5041245;28;20594;-56
2022/05/25 01:39:39;;;;;;;10.60;6.87;;;17.80;95.40;;;18.07;64.69;94836.41;5052185;28;20472;-54
2022/05/25 01:42:12;;;;;;;9.50;7.57;;;17.70;95.50;;;18.04;65.34;94835.97;5050256;28;20483;-54
2022/05/25 01:44:43;;;;;;;10.40;7.87;;;17.70;95.50;;;18.02;65.00;94832.69;5049707;28;20510;-56
2022/05/25 01:47:12;;;;;;;8.63;7.73;;;17.70;95.50;;;18.00;65.16;94830.19;5049262;28;20447;-57
2022/05/25 01:49:43;;;;;;;9.20;7.13;;;17.70;95.70;;;17.98;65.37;94831.38;5049913;28;20505;-56
2022/05/25 01:52:12;;;;;;;7.60;6.90;;;17.60;95.80;;;17.96;65.72;94830.75;5052518;28;20463;-55
2022/05/25 01:54:42;;;;;;;9.80;7.53;;;17.60;95.90;;;17.91;65.64;94829.47;5056875;28;20502;-56
2022/05/25 01:57:11;;;;;;;9.33;8.30;;;17.60;96.00;;;17.88;65.94;94832.50;5056604;28;20444;-55
2022/05/25 01:59:40;;;;;;;8.63;7.80;;;17.60;96.00;;;17.87;65.67;94844.13;5052884;28;21119;-54
2022/05/25 02:04:54;;;;;;;8.90;7.47;;;17.50;96.20;;;17.82;65.97;94848.38;5048683;28;20481;-58
2022/05/25 02:07:35;;;;;;;9.80;7.90;;;17.50;96.20;;;17.79;66.17;94844.22;5055311;28;20984;-57
2022/05/25 02:10:26;;;;;;;8.40;7.00;;;17.50;96.50;;;17.76;65.94;94857.09;5047463;28;20840;-57
2022/05/25 02:13:24;;;;;;;10.27;8.60;;;17.40;96.50;;;17.71;66.74;94847.81;5052499;28;20853;-57
2022/05/25 02:16:00;;;;;;;34.03;27.70;;;17.40;96.60;;;17.71;66.11;94853.13;5045444;28;20937;-57
2022/05/25 02:18:35;;;;;;;24.13;16.97;;;17.40;96.50;;;17.71;66.37;94858.44;5053398;28;20484;-57
2022/05/25 02:21:06;;;;;;;16.47;12.63;;;17.40;96.70;;;17.71;65.99;94862.97;5052358;28;20577;-57
2022/05/25 02:23:38;;;;;;;16.83;13.40;;;17.40;96.70;;;17.70;66.66;94861.28;5048425;28;20470;-54
2022/05/25 02:26:09;;;;;;;15.37;11.23;;;17.40;96.80;;;17.68;66.34;94866.81;5047344;28;21019;-60
2022/05/25 02:28:40;;;;;;;15.27;13.20;;;17.40;96.90;;;17.68;66.90;94871.31;5038586;28;20502;-56
2022/05/25 02:31:11;;;;;;;17.13;14.63;;;17.40;97.10;;;17.67;67.09;94878.44;5052204;28;20551;-55
2022/05/25 02:33:40;;;;;;;16.50;14.90;;;17.30;97.00;;;17.67;66.75;94882.94;5054456;28;20471;-54
2022/05/25 02:36:09;;;;;;;13.80;12.00;;;17.30;97.10;;;17.66;67.23;94883.94;5051334;28;20479;-56
2022/05/25 02:38:37;;;;;;;13.10;11.80;;;17.30;97.20;;;17.64;67.15;94881.47;5046881;28;20452;-56
2022/05/25 02:41:06;;;;;;;18.23;11.87;;;17.30;97.30;;;17.63;66.81;94876.31;5045817;28;20510;-56
2022/05/25 02:43:35;;;;;;;18.13;12.30;;;17.30;97.20;;;17.60;67.50;94877.53;5052400;28;20471;-56
2022/05/25 02:46:02;;;;;;;16.63;10.97;;;17.30;97.50;;;17.59;67.77;94875.88;5048989;28;20471;-58
2022/05/25 02:48:31;;;;;;;12.67;11.10;;;17.30;97.70;;;17.56;67.44;94879.72;5051044;28;20514;-56
2022/05/25 02:50:58;;;;;;;9.67;8.80;;;17.20;97.40;;;17.55;67.31;94880.75;5047630;28;20542;-57
2022/05/25 02:53:25;;;;;;;10.53;9.53;;;17.20;97.60;;;17.54;67.44;94881.75;5047369;28;20463;-56
2022/05/25 02:55:52;;;;;;;14.70;9.83;;;17.20;97.70;;;17.55;67.69;94880.75;5052764;28;20487;-58
2022/05/25 02:58:19;;;;;;;14.17;10.50;;;17.20;97.90;;;17.55;67.93;94885.22;5053289;28;21043;-54
2022/05/25 03:00:47;;;;;;;16.27;10.30;;;17.20;97.90;;;17.54;67.95;94889.72;5049874;28;20960;-57
2022/05/25 03:03:14;;;;;;;13.03;9.60;;;17.20;97.90;;;17.54;68.06;94892.38;5041776;28;20979;-54
2022/05/25 03:05:43;;;;;;;12.37;9.33;;;17.20;97.90;;;17.56;67.67;94902.84;5047267;28;20480;-56
2022/05/25 03:08:10;;;;;;;18.87;10.30;;;17.20;97.90;;;17.55;67.87;94902.03;5050678;28;20462;-54
2022/05/25 03:10:38;;;;;;;15.93;10.50;;;17.20;97.90;;;17.58;67.89;94897.34;5051276;28;20479;-56
2022/05/25 03:13:06;;;;;;;12.70;9.83;;;17.20;98.00;;;17.58;67.61;94897.34;5048823;28;20835;-56
2022/05/25 03:15:34;;;;;;;16.17;11.73;;;17.20;97.90;;;17.59;67.73;94907.78;5040926;28;20478;-55
2022/05/25 03:18:01;;;;;;;19.33;13.33;;;17.30;98.00;;;17.61;68.26;94904.94;5038894;28;20856;-57
2022/05/25 03:20:28;;;;;;;21.20;15.87;;;17.30;98.00;;;17.62;67.99;94917.25;5041241;28;20479;-57
2022/05/25 03:22:57;;;;;;;22.97;14.47;;;17.30;98.00;;;17.60;67.50;94911.28;5058380;28;20517;-56
2022/05/25 03:25:24;;;;;;;21.40;16.07;;;17.30;98.00;;;17.62;68.00;94914.59;5050620;28;21319;-56
2022/05/25 03:27:52;;;;;;;27.73;13.80;;;17.30;98.00;;;17.62;67.79;94911.94;5045747;28;20863;-55
2022/05/25 03:30:20;;;;;;;16.37;13.23;;;17.30;98.00;;;17.62;68.09;94923.38;5047357;28;21027;-56
2022/05/25 03:32:49;;;;;;;19.70;12.67;;;17.30;98.00;;;17.65;67.87;94928.34;5044568;28;20455;-56
2022/05/25 03:35:16;;;;;;;14.20;12.80;;;17.30;98.30;;;17.69;68.20;94932.31;5052955;28;20492;-56
2022/05/25 03:37:43;;;;;;;14.83;11.40;;;17.30;98.30;;;17.71;68.12;94937.44;5054237;28;20687;-56
2022/05/25 03:40:14;;;;;;;15.67;12.93;;;17.40;98.10;;;17.71;67.91;94930.28;5039639;28;20481;-53
2022/05/25 03:42:41;;;;;;;16.67;10.20;;;17.40;98.10;;;17.73;67.36;94935.41;5047256;28;20514;-57
2022/05/25 03:45:10;;;;;;;14.53;10.60;;;17.40;98.00;;;17.72;67.69;94942.59;5043351;28;20543;-57
2022/05/25 03:47:38;;;;;;;16.80;8.77;;;17.40;97.90;;;17.76;67.61;94948.34;5051222;28;20455;-54
2022/05/25 03:50:06;;;;;;;9.17;8.27;;;17.40;97.80;;;17.79;67.22;94948.00;5055613;28;20483;-57
2022/05/25 03:52:33;;;;;;;13.47;8.67;;;17.40;97.80;;;17.82;67.19;94960.94;5052491;28;20463;-55
2022/05/25 03:55:00;;;;;;;10.30;8.23;;;17.50;98.10;;;17.83;67.44;94959.94;5047732;28;20479;-54
2022/05/25 03:57:29;;;;;;;10.63;9.43;;;17.50;97.70;;;17.86;67.40;94961.38;5045261;28;20950;-55
2022/05/25 03:59:56;;;;;;;12.00;8.20;;;17.50;97.70;;;17.90;67.04;94957.38;5041877;28;21011;-57
2022/05/25 04:02:24;;;;;;;12.67;8.40;;;17.50;97.60;;;17.97;67.10;94954.81;5054822;28;20568;-55
2022/05/25 04:05:07;;;;;;;13.00;8.27;;;17.60;97.60;;;18.02;66.94;94963.09;5054569;28;20522;-55
2022/05/25 04:07:36;;;;;;;8.83;7.97;;;17.60;97.50;;;18.07;66.51;94955.38;5048605;28;20949;-58
2022/05/25 04:10:05;;;;;;;11.67;7.63;;;17.70;97.40;;;18.14;66.18;94961.63;5045265;28;20551;-58
2022/05/25 04:12:34;;;;;;;10.70;7.50;;;17.80;97.40;;;18.20;66.49;94957.38;5047993;28;20901;-55
2022/05/25 04:15:01;;;;;;;12.97;9.10;;;17.80;97.50;;;18.25;66.30;94955.81;5056710;28;20467;-56
2022/05/25 04:17:29;;;;;;;9.63;8.53;;;17.90;97.50;;;18.31;66.06;94958.75;5053919;28;20470;-58
2022/05/25 04:19:56;;;;;;;12.90;8.50;;;17.90;97.10;;;18.34;65.90;94959.22;5051609;28;20550;-56
2022/05/25 04:22:24;;;;;;;16.07;7.47;;;18.00;97.10;;;18.41;66.63;94965.44;5041952;28;20552;-58
2022/05/25 04:24:51;;;;;;;9.37;8.17;;;18.00;97.20;;;18.50;66.36;94957.31;5046352;28;20487;-57
2022/05/25 04:27:19;;;;;;;9.33;8.20;;;18.10;97.10;;;18.59;66.20;94961.53;5058824;28;20447;-58
2022/05/25 04:29:47;;;;;;;11.83;8.23;;;18.20;97.00;;;18.62;65.82;94962.00;5053146;28;20471;-56
2022/05/25 04:32:15;;;;;;;10.27;8.33;;;18.30;97.00;;;18.67;65.96;94964.09;5046959;28;20635;-59
2022/05/25 04:34:42;;;;;;;10.73;9.57;;;18.30;96.90;;;18.74;65.40;94964.97;5048219;28;20903;-58
2022/05/25 04:39:54;;;;;;;10.83;9.47;;;18.40;96.60;;;18.80;65.68;94971.41;5055275;28;21072;-58
2022/05/25 04:42:21;;;;;;;10.73;9.40;;;18.50;96.60;;;18.78;65.38;94966.28;5049855;28;20488;-57
2022/05/25 04:44:50;;;;;;;15.70;9.67;;;18.50;96.60;;;18.78;65.38;94978.78;5051622;28;20498;-55
2022/05/25 04:47:17;;;;;;;14.07;10.30;;;18.40;96.60;;;18.81;65.41;94973.06;5048309;28;20554;-54
2022/05/25 04:49:44;;;;;;;14.53;10.60;;;18.40;97.10;;;18.83;65.04;94979.03;5043199;28;21014;-59
2022/05/25 04:52:12;;;;;;;10.50;9.40;;;18.50;96.60;;;18.86;65.74;94976.03;5051924;28;20551;-56
2022/05/25 04:54:39;;;;;;;13.13;10.50;;;18.50;96.60;;;18.90;64.98;94961.31;5057288;28;20470;-56
2022/05/25 04:57:20;;;;;;;13.73;8.70;;;18.50;96.50;;;18.95;65.12;94971.41;5055811;28;20487;-56
2022/05/25 04:59:49;;;;;;;13.33;9.83;;;18.60;96.70;;;19.01;64.89;94969.81;5052860;28;20478;-57
2022/05/25 05:02:17;;;;;;;13.53;11.93;;;18.60;96.50;;;19.08;64.84;94978.72;5037947;28;20495;-54
2022/05/25 05:04:44;;;;;;;13.57;10.90;;;18.70;96.30;;;19.12;64.60;94967.47;5062288;28;20474;-55
2022/05/25 05:07:11;;;;;;;20.67;11.50;;;18.70;96.20;;;19.18;64.46;94976.56;5059795;28;20458;-57
2022/05/25 05:09:41;;;;;;;18.97;12.53;;;18.80;96.10;;;19.25;64.47;94974.75;5056818;28;20495;-58
2022/05/25 05:12:09;;;;;;;17.73;11.80;;;18.90;96.10;;;19.31;64.76;94982.00;5052863;28;20450;-56
2022/05/25 05:14:37;;;;;;;11.80;10.50;;;18.90;95.90;;;19.37;64.56;94975.09;5050083;28;20471;-55
2022/05/25 05:17:07;;;;;;;16.10;10.30;;;19.00;95.90;;;19.48;64.28;94985.22;5054783;28;20462;-57
2022/05/25 05:19:35;;;;;;;15.00;9.30;;;19.10;95.80;;;19.59;64.20;94989.22;5060073;28;20475;-56
2022/05/25 05:22:03;;;;;;;14.23;10.70;;;19.20;95.60;;;19.72;64.17;94991.19;5059112;28;20491;-56
2022/05/25 05:24:32;;;;;;;13.73;10.80;;;19.30;95.80;;;19.88;63.70;94987.44;5053958;28;20486;-59
2022/05/25 05:26:59;;;;;;;18.80;10.53;;;19.40;95.50;;;20.05;63.21;94995.97;5050076;28;20542;-57
2022/05/25 05:29:30;;;;;;;12.87;11.57;;;19.60;95.30;;;20.22;62.59;94994.63;5057176;28;20545;-57
2022/05/25 05:31:57;;;;;;;13.77;11.03;;;19.80;94.90;;;20.40;62.42;95002.13;5059434;28;20477;-55
2022/05/25 05:34:28;;;;;;;25.30;11.33;;;19.90;94.60;;;20.57;61.69;94999.94;5057756;28;20479;-56
2022/05/25 05:36:59;;;;;;;19.53;11.60;;;20.10;94.40;;;20.75;61.56;95002.09;5055247;28;20435;-57
2022/05/25 05:39:28;;;;;;;18.73;11.10;;;20.20;94.30;;;20.94;61.07;95013.06;5045883;28;20507;-55
2022/05/25 05:41:58;;;;;;;20.83;10.37;;;20.40;93.90;;;21.14;60.79;95021.97;5054519;28;20565;-58
2022/05/25 05:44:28;;;;;;;14.57;10.50;;;20.60;93.70;;;21.36;59.95;95016.44;5060718;28;20479;-56
2022/05/25 05:46:55;;;;;;;16.67;10.83;;;20.80;93.30;;;21.57;59.91;95017.34;5055279;28;20474;-54
2022/05/25 05:49:23;;;;;;;16.63;10.57;;;21.00;92.90;;;21.76;59.24;95011.16;5041530;28;20466;-56
2022/05/25 05:51:52;;;;;;;21.30;11.60;;;21.20;92.60;;;21.97;59.02;95009.31;5047074;28;20459;-56
2022/05/25 05:54:19;;;;;;;14.00;9.90;;;21.40;92.30;;;22.14;58.59;95002.50;5050917;28;20714;-57
2022/05/25 05:56:46;;;;;;;22.63;10.43;;;21.60;91.80;;;22.30;58.09;95003.09;5062023;28;20925;-57
2022/05/25 05:59:13;;;;;;;23.03;10.97;;;21.70;91.40;;;22.38;57.61;95009.09;5059535;28;21030;-57
2022/05/25 06:01:42;;;;;;;12.73;10.47;;;21.80;91.10;;;22.52;57.64;95012.53;5052758;28;20501;-57
2022/05/25 06:04:10;;;;;;;16.90;11.30;;;22.00;91.00;;;22.71;57.51;95010.00;5051153;28;20463;-56
2022/05/25 06:06:37;;;;;;;15.33;11.30;;;22.10;90.70;;;22.81;57.13;95021.09;5044524;28;20974;-55
2022/05/25 06:09:06;;;;;;;16.50;11.57;;;22.30;90.30;;;22.82;56.54;95024.59;5055732;28;20470;-57
2022/05/25 06:11:34;;;;;;;18.30;11.00;;;22.30;90.00;;;22.88;56.59;95013.84;5058215;28;20517;-55
2022/05/25 06:14:02;;;;;;;19.03;10.93;;;22.40;89.80;;;22.99;56.71;95008.84;5048129;28;20447;-59
2022/05/25 06:19:28;;;;;;;30.57;12.40;;;22.60;89.30;;;23.26;55.97;95009.56;5050400;28;20455;-58
2022/05/25 06:21:59;;;;;;;17.70;11.37;;;22.70;89.00;;;23.44;56.09;95019.59;5055455;28;20966;-58
2022/05/25 06:24:30;;;;;;;13.60;12.10;;;22.90;89.30;;;23.67;55.16;95027.06;5057957;28;20558;-56
2022/05/25 06:26:57;;;;;;;12.07;10.60;;;23.00;88.10;;;23.82;55.09;95029.41;5054389;28;20450;-55
2022/05/25 06:29:25;;;;;;;21.13;11.33;;;23.20;87.10;;;23.93;54.51;95025.22;5051598;28;20962;-57
2022/05/25 06:31:52;;;;;;;13.40;11.40;;;23.40;86.30;;;24.05;54.17;95017.28;5046425;28;20508;-54
2022/05/25 06:34:19;;;;;;;20.30;10.80;;;23.50;86.40;;;24.15;53.70;95013.06;5060319;28;20471;-59
2022/05/25 06:36:48;;;;;;;13.57;10.90;;;23.60;84.90;;;24.26;53.98;95018.72;5057944;28;20460;-56
2022/05/25 06:39:16;;;;;;;18.27;11.20;;;23.70;84.30;;;24.39;53.00;95023.19;5055158;28;20476;-56
2022/05/25 06:41:44;;;;;;;13.63;12.03;;;23.80;83.80;;;24.54;53.41;95010.19;5051070;28;20453;-55
2022/05/25 06:44:12;;;;;;;31.90;11.27;;;24.00;83.70;;;24.72;53.00;95019.31;5048558;28;20444;-56
2022/05/25 06:46:39;;;;;;;14.57;9.53;;;24.10;83.50;;;24.91;52.61;95026.34;5055623;28;20838;-54
2022/05/25 06:49:06;;;;;;;13.33;11.30;;;24.30;82.50;;;25.13;52.51;95028.53;5056842;28;20451;-57
2022/05/25 06:51:35;;;;;;;19.93;9.40;;;24.50;81.90;;;25.34;52.13;95032.66;5056947;28;20535;-54
2022/05/25 06:54:03;;;;;;;16.27;10.17;;;24.70;81.40;;;25.58;51.18;95036.25;5052838;28;20978;-57
2022/05/25 06:56:30;;;;;;;20.23;9.40;;;24.90;80.00;;;25.80;51.43;95038.44;5049092;28;21052;-57
2022/05/25 06:58:59;;;;;;;16.70;10.23;;;25.10;79.70;;;26.00;50.18;95041.66;5058812;28;20443;-57
2022/05/25 07:01:26;;;;;;;11.13;9.07;;;25.30;78.20;;;26.18;50.63;95039.91;5053966;28;20450;-56
2022/05/25 07:03:54;;;;;;;23.73;9.63;;;25.50;78.70;;;26.34;49.76;95044.59;5055431;28;20577;-55
2022/05/25 07:06:22;;;;;;;14.43;9.83;;;25.70;76.50;;;26.50;49.69;95036.88;5051846;28;20459;-55
2022/05/25 07:08:49;;;;;;;17.00;9.47;;;25.90;76.30;;;26.71;49.50;95033.59;5035921;28;20454;-57
2022/05/25 07:11:17;;;;;;;10.90;9.57;;;26.10;75.60;;;26.90;49.34;95039.66;5055891;28;20469;-56
2022/05/25 07:13:44;;;;;;;15.77;9.27;;;26.30;74.40;;;27.10;49.06;95033.84;5058317;28;20978;-56
2022/05/25 07:16:15;;;;;;;12.47;8.67;;;26.40;73.90;;;27.34;48.42;95041.88;5056963;28;20528;-57
2022/05/25 07:18:42;;;;;;;17.97;7.93;;;26.60;73.30;;;27.55;47.92;95049.31;5053551;28;20439;-58
2022/05/25 07:21:12;;;;;;;15.80;8.80;;;26.90;72.00;;;27.78;47.98;95044.88;5049568;28;20994;-57
2022/05/25 07:23:40;;;;;;;15.50;8.67;;;27.10;71.10;;;28.00;47.29;95044.19;5053510;28;20497;-58
2022/05/25 07:26:08;;;;;;;16.13;9.97;;;27.30;70.10;;;28.16;46.73;95042.53;5059963;28;20505;-58
2022/05/25 07:28:35;;;;;;;14.43;9.23;;;27.50;68.80;;;28.23;46.60;95037.78;5057978;28;20454;-56
2022/05/25 07:31:07;;;;;;;10.37;8.80;;;27.60;67.30;;;28.29;45.83;95033.25;5052448;28;20554;-55
2022/05/25 07:33:38;;;;;;;14.40;9.87;;;27.60;66.70;;;28.40;45.03;95033.19;5038874;28;21020;-56
2022/05/25 07:36:06;;;;;;;17.33;9.50;;;27.70;65.40;;;28.37;45.52;95028.25;5049408;28;20477;-55
2022/05/25 07:38:33;;;;;;;35.77;10.00;;;27.80;65.20;;;28.33;45.66;95023.59;5051710;28;20508;-57
2022/05/25 07:41:00;;;;;;;11.47;8.60;;;27.80;65.00;;;28.38;45.19;95024.50;5055414;28;20784;-55
2022/05/25 07:43:30;;;;;;;15.40;8.90;;;27.80;64.60;;;28.37;45.48;95016.63;5054162;28;20491;-58
2022/05/25 07:45:57;;;;;;;12.73;8.77;;;27.80;64.20;;;28.32;45.34;95011.97;5049049;28;20475;-57
2022/05/25 07:48:25;;;;;;;15.50;7.90;;;27.80;63.40;;;28.32;45.14;95011.13;5047348;28;20584;-59
2022/05/25 07:50:53;;;;;;;14.53;7.87;;;27.80;63.20;;;28.49;45.00;95014.66;5055176;28;20497;-58
2022/05/25 07:56:06;;;;;;;10.53;7.37;;;28.10;62.90;;;29.02;44.68;95022.38;5052380;28;20892;-57
2022/05/25 07:58:33;;;;;;;10.30;8.23;;;28.30;62.30;;;29.23;43.49;95027.00;5044279;28;20988;-56
2022/05/25 08:01:05;;;;;;;13.00;9.30;;;28.50;61.20;;;29.35;43.09;95026.88;5047296;28;20999;-58
2022/05/25 08:06:18;;;;;;;10.77;8.03;;;28.80;60.20;;;29.47;43.72;95018.59;5056136;28;21149;-56
2022/05/25 08:08:45;;;;;;;13.90;8.60;;;28.90;59.90;;;29.61;43.14;95017.09;5055713;28;20462;-54
2022/05/25 08:11:14;;;;;;;19.80;9.20;;;29.00;59.90;;;29.76;43.21;95011.03;5050428;28;20878;-56
2022/05/25 08:13:44;;;;;;;19.30;8.40;;;29.10;59.10;;;29.71;42.59;95002.03;5033607;28;20565;-57
2022/05/25 08:16:11;;;;;;;17.80;8.10;;;29.20;58.50;;;29.75;43.25;95000.44;5052396;28;20473;-56
2022/05/25 08:18:39;;;;;;;21.43;8.10;;;29.20;58.60;;;29.90;43.34;95008.75;5057516;28;20446;-56
2022/05/25 08:21:06;;;;;;;16.30;8.53;;;29.30;58.90;;;30.19;43.07;95022.81;5054063;28;21000;-58
2022/05/25 08:23:35;;;;;;;16.23;8.13;;;29.50;58.70;;;30.44;41.92;95036.84;5048876;28;20513;-55
2022/05/25 08:26:02;;;;;;;12.37;8.13;;;29.70;58.00;;;30.68;41.92;95034.56;5047376;28;20566;-56
2022/05/25 08:28:30;;;;;;;17.67;9.30;;;30.00;57.80;;;30.97;41.24;95017.84;5058417;28;20523;-57
2022/05/25 08:30:57;;;;;;;12.20;8.30;;;30.20;57.30;;;31.16;40.88;95029.13;5053369;28;20747;-58
2022/05/25 08:33:26;;;;;;;8.67;7.57;;;30.50;56.00;;;31.24;41.12;95029.41;5057439;28;20255;-57
2022/05/25 08:35:53;;;;;;;18.83;8.33;;;30.60;55.50;;;31.40;40.82;95032.16;5055198;28;20466;-60
2022/05/25 08:38:22;;;;;;;11.40;9.03;;;30.70;55.80;;;31.65;40.69;95028.72;5051057;28;20563;-58
2022/05/25 08:40:52;;;;;;;14.80;9.00;;;30.90;55.20;;;31.88;39.92;95032.84;5059031;28;20230;-56
2022/05/25 08:43:22;;;;;;;19.60;9.40;;;31.20;54.40;;;32.07;39.10;95035.84;5062316;28;20804;-57
2022/05/25 08:45:51;;;;;;;17.23;8.87;;;31.40;52.50;;;32.24;39.33;95032.91;5058572;28;20217;-58
2022/05/25 08:48:20;;;;;;;19.53;8.30;;;31.50;53.20;;;32.41;38.99;95023.59;5055207;28;20201;-56
2022/05/25 08:50:51;;;;;;;21.70;8.17;;;31.70;52.90;;;32.63;38.79;95032.28;5051608;28;20216;-57
2022/05/25 08:53:18;;;;;;;17.00;8.93;;;32.00;52.60;;;32.83;38.56;95030.66;5056167;28;20196;-59
2022/05/25 08:55:59;;;;;;;12.35;8.02;;;32.20;52.20;;;33.08;38.07;95018.84;5061599;28;20220;-58
2022/05/25 08:58:31;;;;;;;16.02;8.20;;;32.30;51.80;;;33.27;37.75;95034.63;5054279;28;20207;-58
2022/05/25 09:00:58;;;;;;;13.20;7.88;;;32.50;50.70;;;33.41;37.77;95030.16;5054900;28;20282;-57
2022/05/25 09:03:31;;;;;;;12.40;7.72;;;32.70;51.10;;;33.56;37.18;95030.09;5050850;28;20318;-57
2022/05/25 09:06:03;;;;;;;17.85;8.05;;;32.80;50.60;;;33.72;37.88;95035.47;5054803;28;20307;-56
2022/05/25 09:08:38;;;;;;;17.73;9.43;;;33.00;50.80;;;33.75;37.00;95034.91;5061764;28;20197;-58
2022/05/25 09:11:09;;;;;;;19.13;9.90;;;33.10;49.80;;;33.52;37.19;95023.56;5054781;28;20246;-55
2022/05/25 09:13:39;;;;;;;13.68;8.05;;;33.00;49.40;;;33.30;37.58;95032.13;5054320;28;20204;-58
2022/05/25 09:16:19;;;;;;;13.40;7.90;;;32.80;49.80;;;33.35;37.89;95034.03;5048463;28;20709;-57
2022/05/25 09:18:53;;;;;;;13.45;8.50;;;32.70;50.20;;;33.47;37.67;95039.97;5054066;28;20230;-59
2022/05/25 09:21:23;;;;;;;18.52;8.73;;;32.80;50.40;;;33.65;37.57;95040.41;5059315;28;20193;-59
2022/05/25 09:23:52;;;;;;;13.18;7.97;;;32.90;50.40;;;33.82;37.26;95029.13;5053336;28;20318;-54
2022/05/25 09:26:20;;;;;;;22.00;9.15;;;33.10;50.10;;;33.99;36.80;95035.03;5054946;28;20221;-59
2022/05/25 09:28:49;;;;;;;17.60;8.48;;;33.30;49.60;;;34.09;36.95;95036.88;5048871;28;20239;-57
2022/05/25 09:31:20;;;;;;;13.43;7.72;;;33.40;49.20;;;34.22;36.38;95041.69;5050781;28;20232;-55
2022/05/25 09:33:50;;;;;;;11.05;7.55;;;33.50;49.00;;;34.36;36.33;95028.19;5053875;28;20207;-57
2022/05/25 09:36:21;;;;;;;22.92;8.05;;;33.70;48.70;;;34.50;36.91;95038.47;5056775;28;20288;-55
2022/05/25 09:39:01;;;;;;;15.45;8.77;;;33.80;48.90;;;34.62;34.87;95031.50;5054402;28;20224;-57
2022/05/25 09:41:31;;;;;;;20.55;8.80;;;33.90;47.50;;;34.63;36.09;95024.94;5046790;28;20201;-56
2022/05/25 09:44:00;;;;;;;19.63;9.10;;;34.00;48.10;;;34.66;36.31;95032.56;5052111;28;20575;-60
2022/05/25 09:46:30;;;;;;;15.80;7.50;;;34.00;47.60;;;34.74;36.06;95019.38;5058817;28;20220;-55
2022/05/25 09:48:59;;;;;;;19.92;6.75;;;34.00;47.60;;;34.85;35.83;95011.91;5058776;28;20242;-56
2022/05/25 09:51:32;;;;;;;14.50;7.43;;;34.10;48.30;;;34.97;35.42;95010.38;5055009;28;20330;-57
2022/05/25 09:54:03;;;;;;;14.65;7.93;;;34.20;47.30;;;35.06;35.71;95007.00;5051736;28;20578;-58
2022/05/25 09:56:33;;;;;;;16.58;7.20;;;34.30;46.80;;;35.03;34.74;94996.66;5050988;28;20247;-55
2022/05/25 09:59:06;;;;;;;14.02;8.57;;;34.30;46.50;;;34.91;35.66;94989.69;5061445;28;20200;-58
2022/05/25 10:01:40;;;;;;;13.30;8.15;;;34.30;46.80;;;34.70;34.91;94988.25;5055040;28;20204;-57
2022/05/25 10:04:08;;;;;;;18.35;9.07;;;34.10;46.50;;;34.65;35.55;94994.59;5051657;28;20232;-59
2022/05/25 10:06:48;;;;;;;14.88;8.40;;;34.00;47.00;;;34.68;36.04;94988.56;5049864;28;20196;-58
2022/05/25 10:09:19;;;;;;;16.23;8.10;;;34.00;47.60;;;34.74;35.60;94989.31;5050908;28;20224;-55
2022/05/25 10:11:50;;;;;;;17.10;8.02;;;34.00;47.40;;;34.80;34.98;94985.44;5058285;28;20208;-56
2022/05/25 10:14:24;;;;;;;17.33;7.75;;;34.10;46.60;;;34.83;34.97;94990.34;5055191;28;20733;-59
2022/05/25 10:16:51;;;;;;;18.75;8.88;;;34.10;46.50;;;34.88;35.14;94992.19;5055588;28;20590;-54
2022/05/25 10:19:20;;;;;;;16.88;7.40;;;34.20;46.70;;;34.94;34.80;94991.84;5053311;28;20217;-56
2022/05/25 10:21:50;;;;;;;12.88;7.38;;;34.20;46.00;;;34.97;33.99;94999.47;5047700;28;20687;-58
2022/05/25 10:24:22;;;;;;;15.65;7.32;;;34.20;45.30;;;34.93;34.62;94998.41;5060517;28;20277;-58
2022/05/25 10:26:52;;;;;;;12.80;7.72;;;34.30;45.60;;;34.93;34.20;94992.94;5056647;28;20197;-57
2022/05/25 10:37:56;;;;;;;17.17;9.98;;;34.40;46.00;;;35.10;34.45;94959.66;5057934;28;20196;-58
2022/05/25 10:40:24;;;;;;;15.13;7.03;;;34.40;45.30;;;34.99;34.52;94950.75;5054457;28;20758;-58
2022/05/25 10:42:58;;;;;;;20.02;6.93;;;34.30;45.10;;;34.86;34.01;94948.75;5052958;28;20215;-54
2022/05/25 10:45:32;;;;;;;13.77;5.95;;;34.20;44.50;;;34.85;34.32;94947.13;5046621;28;20906;-57
2022/05/25 10:48:11;;;;;;;12.13;6.68;;;34.20;45.20;;;34.92;34.14;94942.13;5051280;28;20193;-58